Willow Valley, Indiana
Current Conditions -  °F | °C
As of 8:15 AM on Saturday 20 Dec 2014 (Local Time) from KDCY Reporting Station
Haze Haze  
Wind Chill: 23°   Ceiling: 5000
Heat Index: 30°   Visibility: 5mi
Dew Point: 27°   Wind: 7mph
Humidity: 88%   Direction: 70°ENE
Pressure: 30.29"   Gusts: NA
Location:  38.6262°N, 86.7615°W
Report Text: KDCY 201415Z AUTO 07006KT 5SM BR OVC050 M01/M03 A3029 RMK AO2 T10101028
Loading
Personal Weather Stations






























Interactive Weather Map New forecast layout! Learn more

10-Day Weather Forecast

Advertisements
Track Severe Weather on mobile